createdAt,value
2024-04-21T00:02:02.757Z,94318.81
2024-04-21T00:04:30.195Z,94312.25
2024-04-21T00:06:58.592Z,94309.03
2024-04-21T00:09:26.045Z,94295.16
2024-04-21T00:11:53.461Z,94309.22
2024-04-21T00:14:20.860Z,94294.72
2024-04-21T00:16:48.298Z,94312.50
2024-04-21T00:19:15.581Z,94315.94
2024-04-21T00:21:43.129Z,94312.72
2024-04-21T00:24:10.545Z,94309.16
2024-04-21T00:26:37.951Z,94305.31
2024-04-21T00:29:06.893Z,94309.84
2024-04-21T00:31:34.214Z,94307.44
2024-04-21T00:34:01.621Z,94309.28
2024-04-21T00:36:29.029Z,94313.31
2024-04-21T00:38:56.551Z,94302.50
2024-04-21T00:41:25.258Z,94312.84
2024-04-21T00:43:52.904Z,94315.69
2024-04-21T00:46:20.989Z,94320.72
2024-04-21T00:48:48.974Z,94308.69
2024-04-21T00:51:22.101Z,94286.34
2024-04-21T00:53:52.332Z,94316.78
2024-04-21T00:56:24.031Z,94325.78
2024-04-21T00:58:54.168Z,94324.09
2024-04-21T01:01:24.912Z,94317.75
2024-04-21T01:03:53.611Z,94320.00
2024-04-21T01:06:20.987Z,94321.53
2024-04-21T01:08:48.606Z,94299.09
2024-04-21T01:11:19.875Z,94288.97
2024-04-21T01:13:47.252Z,94320.38
2024-04-21T01:16:15.320Z,94318.56
2024-04-21T01:18:43.116Z,94322.94
2024-04-21T01:21:10.572Z,94333.28
2024-04-21T01:23:39.337Z,94320.38
2024-04-21T01:26:06.597Z,94328.25
2024-04-21T01:28:34.003Z,94305.25
2024-04-21T01:31:01.635Z,94311.97
2024-04-21T01:33:29.100Z,94292.75
2024-04-21T01:35:56.594Z,94284.50
2024-04-21T01:38:24.119Z,94308.63
2024-04-21T01:40:51.359Z,94317.28
2024-04-21T01:43:18.794Z,94288.75
2024-04-21T01:45:46.300Z,94304.28
2024-04-21T01:48:13.867Z,94310.75
2024-04-21T01:50:41.282Z,94302.69
2024-04-21T01:53:08.618Z,94310.56
2024-04-21T01:55:36.055Z,94314.06
2024-04-21T01:58:03.748Z,94296.16
2024-04-21T02:00:31.227Z,94308.13
2024-04-21T02:02:58.559Z,94303.88
2024-04-21T02:05:26.714Z,94306.72
2024-04-21T02:07:53.940Z,94300.09
2024-04-21T02:10:22.396Z,94275.31
2024-04-21T02:12:50.303Z,94300.09
2024-04-21T02:15:18.010Z,94317.16
2024-04-21T02:17:45.575Z,94306.53
2024-04-21T02:20:14.645Z,94314.97
2024-04-21T02:22:42.112Z,94290.56
2024-04-21T02:25:09.433Z,94316.69
2024-04-21T02:27:36.800Z,94311.03
2024-04-21T02:30:04.088Z,94311.03
2024-04-21T02:32:31.660Z,94294.50
2024-04-21T02:34:58.877Z,94293.44
2024-04-21T02:37:26.405Z,94278.88
2024-04-21T02:39:53.752Z,94290.88
2024-04-21T02:42:21.128Z,94306.25
2024-04-21T02:44:48.569Z,94310.75
2024-04-21T02:47:15.923Z,94299.63
2024-04-21T02:49:43.299Z,94306.88
2024-04-21T02:52:10.705Z,94292.72
2024-04-21T02:54:38.028Z,94309.13
2024-04-21T02:57:06.222Z,94302.53
2024-04-21T02:59:33.581Z,94291.34
2024-04-21T03:02:01.069Z,94293.34
2024-04-21T03:04:28.626Z,94287.25
2024-04-21T03:06:56.024Z,94302.53
2024-04-21T03:09:23.538Z,94293.69
2024-04-21T03:11:50.929Z,94295.75
2024-04-21T03:14:18.843Z,94291.69
2024-04-21T03:16:48.077Z,94278.19
2024-04-21T03:19:15.506Z,94290.69
2024-04-21T03:21:42.965Z,94297.56
2024-04-21T03:24:10.214Z,94280.84
2024-04-21T03:26:38.384Z,94294.09
2024-04-21T03:29:05.935Z,94289.97
2024-04-21T03:31:33.293Z,94286.81
2024-04-21T03:34:00.681Z,94291.75
2024-04-21T03:36:27.955Z,94302.53
2024-04-21T03:38:55.468Z,94294.63
2024-04-21T03:41:23.103Z,94295.56
2024-04-21T03:43:50.783Z,94293.47
2024-04-21T03:46:19.830Z,94282.72
2024-04-21T03:48:48.922Z,94293.75
2024-04-21T03:51:16.303Z,94290.97
2024-04-21T03:53:43.637Z,94286.44
2024-04-21T03:56:11.127Z,94297.06
2024-04-21T03:58:39.354Z,94300.66
2024-04-21T04:01:06.768Z,94274.63
2024-04-21T04:03:34.206Z,94280.97
2024-04-21T04:06:01.757Z,94277.53
2024-04-21T04:08:29.325Z,94291.25
2024-04-21T04:10:56.634Z,94311.53
2024-04-21T04:13:23.933Z,94314.63
2024-04-21T04:15:52.413Z,94315.63
2024-04-21T04:18:19.915Z,94314.63
2024-04-21T04:20:47.718Z,94319.59
2024-04-21T04:23:15.082Z,94328.78
2024-04-21T04:25:44.329Z,94320.75
2024-04-21T04:28:11.789Z,94336.97
2024-04-21T04:30:39.152Z,94335.72
2024-04-21T04:33:06.488Z,94333.47
2024-04-21T04:35:33.826Z,94329.06
2024-04-21T04:38:01.333Z,94325.69
2024-04-21T04:40:28.554Z,94326.16
2024-04-21T04:42:56.035Z,94330.50
2024-04-21T04:45:23.671Z,94323.88
2024-04-21T04:47:51.008Z,94341.63
2024-04-21T04:50:18.535Z,94349.03
2024-04-21T04:52:45.845Z,94338.56
2024-04-21T04:55:14.186Z,94305.50
2024-04-21T04:57:41.596Z,94319.91
2024-04-21T05:00:09.825Z,94349.25
2024-04-21T05:02:37.465Z,94351.53
2024-04-21T05:05:04.910Z,94335.47
2024-04-21T05:07:32.618Z,94344.19
2024-04-21T05:10:00.070Z,94347.53
2024-04-21T05:12:27.491Z,94330.28
2024-04-21T05:14:55.661Z,94347.06
2024-04-21T05:17:23.415Z,94350.00
2024-04-21T05:19:50.830Z,94350.00
2024-04-21T05:22:18.454Z,94363.00
2024-04-21T05:24:45.760Z,94352.03
2024-04-21T05:27:15.024Z,94353.81
2024-04-21T05:29:42.391Z,94357.28
2024-04-21T05:32:09.702Z,94354.00
2024-04-21T05:34:38.305Z,94354.63
2024-04-21T05:37:05.540Z,94355.53
2024-04-21T05:39:32.926Z,94355.56
2024-04-21T05:42:00.340Z,94360.47
2024-04-21T05:44:29.494Z,94351.44
2024-04-21T05:46:57.539Z,94363.22
2024-04-21T05:49:24.893Z,94357.16
2024-04-21T05:51:53.121Z,94358.00
2024-04-21T05:54:20.384Z,94353.25
2024-04-21T05:56:47.904Z,94353.69
2024-04-21T05:59:15.187Z,94347.00
2024-04-21T06:01:42.910Z,94359.56
2024-04-21T06:04:10.281Z,94363.97
2024-04-21T06:06:37.859Z,94358.91
2024-04-21T06:09:05.312Z,94345.66
2024-04-21T06:11:32.728Z,94351.53
2024-04-21T06:14:07.315Z,94343.13
2024-04-21T06:16:34.842Z,94356.31
2024-04-21T06:19:02.229Z,94357.91
2024-04-21T06:21:29.798Z,94335.25
2024-04-21T06:23:57.422Z,94347.34
2024-04-21T06:26:24.869Z,94359.19
2024-04-21T06:28:52.120Z,94362.78
2024-04-21T06:31:19.579Z,94352.38
2024-04-21T06:33:47.284Z,94356.63
2024-04-21T06:36:14.619Z,94365.75
2024-04-21T06:38:43.951Z,94359.03
2024-04-21T06:41:12.806Z,94368.34
2024-04-21T06:43:40.139Z,94361.69
2024-04-21T06:46:07.781Z,94367.63
2024-04-21T06:48:35.134Z,94373.16
2024-04-21T06:51:02.602Z,94361.47
2024-04-21T06:53:34.158Z,94366.81
2024-04-21T06:56:03.068Z,94367.06
2024-04-21T06:58:30.550Z,94367.31
2024-04-21T07:00:57.871Z,94356.34
2024-04-21T07:03:25.464Z,94357.72
2024-04-21T07:05:52.664Z,94360.34
2024-04-21T07:08:20.116Z,94343.81
2024-04-21T07:10:47.544Z,94353.97
2024-04-21T07:13:15.767Z,94358.00
2024-04-21T07:15:43.342Z,94353.44
2024-04-21T07:18:11.038Z,94348.59
2024-04-21T07:20:39.304Z,94354.78
2024-04-21T07:23:06.715Z,94347.00
2024-04-21T07:25:34.167Z,94343.22
2024-04-21T07:28:01.881Z,94340.03
2024-04-21T07:30:29.380Z,94332.28
2024-04-21T07:32:56.934Z,94336.31
2024-04-21T07:35:24.371Z,94340.31
2024-04-21T07:37:51.794Z,94345.66
2024-04-21T07:40:19.427Z,94337.59
2024-04-21T07:42:49.648Z,94347.00
2024-04-21T07:45:18.004Z,94338.44
2024-04-21T07:47:45.382Z,94346.19
2024-04-21T07:50:12.817Z,94334.75
2024-04-21T07:52:40.555Z,94335.81
2024-04-21T07:55:08.026Z,94303.72
2024-04-21T07:57:35.382Z,94322.16
2024-04-21T08:00:03.400Z,94328.31
2024-04-21T08:02:39.667Z,94322.97
2024-04-21T08:05:08.592Z,94318.69
2024-04-21T08:07:36.400Z,94319.75
2024-04-21T08:10:04.359Z,94312.00
2024-04-21T08:12:32.470Z,94327.25
2024-04-21T08:15:00.404Z,94325.91
2024-04-21T08:17:28.344Z,94320.81
2024-04-21T08:19:55.777Z,94325.63
2024-04-21T08:22:23.123Z,94321.88
2024-04-21T08:24:50.862Z,94317.84
2024-04-21T08:27:18.159Z,94302.75
2024-04-21T08:29:45.841Z,94320.84
2024-04-21T08:32:13.174Z,94319.56
2024-04-21T08:34:40.966Z,94294.06
2024-04-21T08:37:08.516Z,94308.13
2024-04-21T08:39:35.862Z,94302.22
2024-04-21T08:42:56.380Z,94330.28
2024-04-21T08:45:24.988Z,94325.50
2024-04-21T08:47:52.831Z,94326.31
2024-04-21T08:50:21.950Z,94334.19
2024-04-21T08:52:50.432Z,94283.41
2024-04-21T08:55:18.602Z,94313.31
2024-04-21T08:57:47.249Z,94339.25
2024-04-21T09:00:21.120Z,94326.69
2024-04-21T09:02:48.948Z,94337.63
2024-04-21T09:05:16.766Z,94328.88
2024-04-21T09:07:45.367Z,94312.78
2024-04-21T09:10:16.248Z,94308.22
2024-04-21T09:12:44.535Z,94291.63
2024-04-21T09:15:11.887Z,94308.78
2024-04-21T09:17:39.782Z,94311.19
2024-04-21T09:20:07.862Z,94312.19
2024-04-21T09:22:35.171Z,94309.41
2024-04-21T09:25:02.619Z,94308.50
2024-04-21T09:27:31.171Z,94306.47
2024-04-21T09:29:59.283Z,94302.69
2024-04-21T09:32:27.904Z,94297.34
2024-04-21T09:34:56.266Z,94305.28
2024-04-21T09:37:24.115Z,94300.28
2024-04-21T09:39:52.195Z,94294.69
2024-04-21T09:42:20.692Z,94283.78
2024-04-21T09:44:50.887Z,94290.69
2024-04-21T09:47:18.698Z,94276.41
2024-04-21T09:49:47.152Z,94282.38
2024-04-21T09:52:17.786Z,94284.84
2024-04-21T09:54:45.266Z,94283.25
2024-04-21T09:57:17.432Z,94283.84
2024-04-21T09:59:46.621Z,94287.22
2024-04-21T10:02:26.500Z,94274.25
2024-04-21T10:05:01.175Z,94273.56
2024-04-21T10:07:34.656Z,94282.84
2024-04-21T10:10:10.461Z,94281.75
2024-04-21T10:12:39.286Z,94281.28
2024-04-21T10:15:08.906Z,94284.00
2024-04-21T10:17:36.784Z,94278.19
2024-04-21T10:20:07.148Z,94279.50
2024-04-21T10:22:35.130Z,94271.09
2024-04-21T10:25:05.767Z,94271.16
2024-04-21T10:27:33.244Z,94261.06
2024-04-21T10:30:12.552Z,94263.47
2024-04-21T10:32:40.107Z,94254.56
2024-04-21T10:35:07.367Z,94258.41
2024-04-21T10:37:36.194Z,94252.34
2024-04-21T10:40:05.773Z,94235.50
2024-04-21T10:42:35.512Z,94242.41
2024-04-21T10:45:03.059Z,94233.50
2024-04-21T10:47:33.785Z,94231.22
2024-04-21T10:50:02.896Z,94229.94
2024-04-21T10:52:33.320Z,94238.09
2024-04-21T10:55:00.728Z,94233.66
2024-04-21T10:57:28.711Z,94250.81
2024-04-21T10:59:56.260Z,94250.97
2024-04-21T11:02:23.674Z,94251.09
2024-04-21T11:04:51.314Z,94262.88
2024-04-21T11:07:18.613Z,94262.16
2024-04-21T11:09:48.233Z,94271.97
2024-04-21T11:12:18.259Z,94272.44
2024-04-21T11:14:45.609Z,94270.28
2024-04-21T11:17:16.501Z,94275.56
2024-04-21T11:19:44.165Z,94257.50
2024-04-21T11:22:12.688Z,94232.00
2024-04-21T11:24:40.375Z,94265.00
2024-04-21T11:27:10.083Z,94259.84
2024-04-21T11:29:37.585Z,94257.06
2024-04-21T11:32:05.752Z,94247.16
2024-04-21T11:34:33.087Z,94246.13
2024-04-21T11:37:00.674Z,94243.59
2024-04-21T11:39:28.927Z,94245.69
2024-04-21T11:41:56.246Z,94237.88
2024-04-21T11:44:23.520Z,94238.50
2024-04-21T11:46:52.802Z,94238.66
2024-04-21T11:49:20.397Z,94230.50
2024-04-21T11:51:47.647Z,94234.63
2024-04-21T11:54:15.075Z,94226.94
2024-04-21T11:56:42.459Z,94229.28
2024-04-21T11:59:09.902Z,94229.25
2024-04-21T12:01:47.830Z,94212.22
2024-04-21T12:04:17.389Z,94221.66
2024-04-21T12:06:44.698Z,94218.97
2024-04-21T12:09:12.040Z,94213.22
2024-04-21T12:11:39.616Z,94211.53
2024-04-21T12:14:16.084Z,94211.66
2024-04-21T12:16:43.645Z,94207.31
2024-04-21T12:19:11.530Z,94211.53
2024-04-21T12:21:57.860Z,94221.72
2024-04-21T12:24:25.220Z,94220.56
2024-04-21T12:26:52.568Z,94213.41
2024-04-21T12:29:20.193Z,94215.53
2024-04-21T12:31:47.987Z,94198.22
2024-04-21T12:34:15.627Z,94146.03
2024-04-21T12:36:43.467Z,94192.34
2024-04-21T12:39:11.163Z,94182.22
2024-04-21T12:41:38.732Z,94171.94
2024-04-21T12:44:06.116Z,94171.13
2024-04-21T12:46:33.693Z,94160.59
2024-04-21T12:49:01.960Z,94156.44
2024-04-21T12:51:29.570Z,94152.88
2024-04-21T12:53:57.448Z,94134.84
2024-04-21T12:56:24.725Z,94150.97
2024-04-21T12:58:52.192Z,94142.44
2024-04-21T13:01:19.627Z,94133.84
2024-04-21T13:03:47.142Z,94144.97
2024-04-21T13:06:14.350Z,94143.69
2024-04-21T13:08:42.154Z,94140.72
2024-04-21T13:11:09.500Z,94136.81
2024-04-21T13:13:36.929Z,94134.88
2024-04-21T13:16:04.454Z,94137.28
2024-04-21T13:18:32.059Z,94136.16
2024-04-21T13:21:00.083Z,94137.97
2024-04-21T13:23:27.446Z,94132.31
2024-04-21T13:25:54.918Z,94141.22
2024-04-21T13:28:22.536Z,94124.44
2024-04-21T13:30:51.666Z,94142.94
2024-04-21T13:33:20.273Z,94143.47
2024-04-21T13:35:47.628Z,94147.88
2024-04-21T13:38:16.869Z,94140.94
2024-04-21T13:40:44.388Z,94143.63
2024-04-21T13:43:11.671Z,94130.84
2024-04-21T13:45:38.982Z,94137.75
2024-04-21T13:48:06.856Z,94130.31
2024-04-21T13:50:34.110Z,94134.84
2024-04-21T13:53:01.455Z,94135.13
2024-04-21T13:55:28.989Z,94127.91
2024-04-21T13:57:56.396Z,94128.63
2024-04-21T14:00:24.987Z,94133.72
2024-04-21T14:02:52.389Z,94118.63
2024-04-21T14:05:19.715Z,94117.31
2024-04-21T14:07:47.101Z,94126.13
2024-04-21T14:10:14.506Z,94105.53
2024-04-21T14:12:42.131Z,94131.47
2024-04-21T14:15:09.577Z,94123.19
2024-04-21T14:17:37.517Z,94118.94
2024-04-21T14:20:05.297Z,94133.59
2024-04-21T14:22:32.729Z,94139.75
2024-04-21T14:25:00.201Z,94106.94
2024-04-21T14:27:27.678Z,94121.59
2024-04-21T14:29:57.330Z,94132.28
2024-04-21T14:32:27.126Z,94126.94
2024-04-21T14:34:54.879Z,94127.47
2024-04-21T14:37:22.503Z,94118.16
2024-04-21T14:39:49.801Z,94122.66
2024-04-21T14:42:18.469Z,94120.00
2024-04-21T14:44:52.084Z,94125.34
2024-04-21T14:47:20.507Z,94123.50
2024-04-21T14:49:47.922Z,94127.44
2024-04-21T14:52:15.970Z,94145.28
2024-04-21T14:54:43.255Z,94142.94
2024-04-21T14:57:10.636Z,94145.75
2024-04-21T14:59:38.058Z,94160.47
2024-04-21T15:02:05.462Z,94163.72
2024-04-21T15:04:36.927Z,94157.59
2024-04-21T15:07:05.673Z,94164.16
2024-04-21T15:09:32.872Z,94168.16
2024-04-21T15:12:00.197Z,94162.13
2024-04-21T15:14:27.393Z,94159.34
2024-04-21T15:16:54.713Z,94167.59
2024-04-21T15:19:22.049Z,94182.28
2024-04-21T15:21:49.385Z,94176.47
2024-04-21T15:24:16.647Z,94185.28
2024-04-21T15:26:43.865Z,94180.25
2024-04-21T15:29:11.414Z,94183.88
2024-04-21T15:31:42.305Z,94190.06
2024-04-21T15:34:09.809Z,94183.97
2024-04-21T15:36:37.014Z,94181.56
2024-04-21T15:39:04.422Z,94170.09
2024-04-21T15:41:33.507Z,94178.53
2024-04-21T15:44:01.510Z,94168.06
2024-04-21T15:46:29.600Z,94184.25
2024-04-21T15:48:57.275Z,94182.38
2024-04-21T15:51:25.680Z,94188.19
2024-04-21T15:53:52.959Z,94180.38
2024-04-21T15:56:20.294Z,94185.44
2024-04-21T15:58:47.560Z,94189.81
2024-04-21T16:01:15.197Z,94193.25
2024-04-21T16:03:42.488Z,94198.97
2024-04-21T16:06:09.803Z,94197.84
2024-04-21T16:08:37.000Z,94209.56
2024-04-21T16:11:05.298Z,94215.06
2024-04-21T16:13:32.650Z,94218.69
2024-04-21T16:16:00.036Z,94226.16
2024-04-21T16:18:28.952Z,94225.41
2024-04-21T16:20:56.506Z,94220.97
2024-04-21T16:23:24.360Z,94231.78
2024-04-21T16:25:51.658Z,94240.38
2024-04-21T16:28:19.380Z,94212.94
2024-04-21T16:30:46.622Z,94233.97
2024-04-21T16:33:16.577Z,94238.06
2024-04-21T16:35:44.369Z,94203.75
2024-04-21T16:38:15.109Z,94248.06
2024-04-21T16:40:42.999Z,94246.25
2024-04-21T16:43:10.773Z,94248.53
2024-04-21T16:45:38.562Z,94247.06
2024-04-21T16:48:07.318Z,94245.66
2024-04-21T16:50:35.853Z,94247.94
2024-04-21T16:53:03.350Z,94257.56
2024-04-21T16:55:31.491Z,94251.41
2024-04-21T16:58:01.951Z,94268.53
2024-04-21T17:00:29.733Z,94271.13
2024-04-21T17:02:57.390Z,94265.09
2024-04-21T17:05:25.403Z,94267.38
2024-04-21T17:08:09.262Z,94271.63
2024-04-21T17:10:37.334Z,94268.56
2024-04-21T17:13:04.821Z,94280.56
2024-04-21T17:15:32.843Z,94274.88
2024-04-21T17:18:00.234Z,94289.75
2024-04-21T17:20:27.754Z,94293.03
2024-04-21T17:22:55.095Z,94287.63
2024-04-21T17:25:22.867Z,94287.88
2024-04-21T17:27:50.124Z,94310.31
2024-04-21T17:30:20.762Z,94309.06
2024-04-21T17:32:48.217Z,94314.72
2024-04-21T17:35:17.168Z,94305.47
2024-04-21T17:37:47.218Z,94310.69
2024-04-21T17:40:14.885Z,94315.81
2024-04-21T17:42:42.171Z,94318.19
2024-04-21T17:45:09.772Z,94314.81
2024-04-21T17:47:37.273Z,94327.13
2024-04-21T17:50:05.508Z,94351.53
2024-04-21T17:52:34.509Z,94338.44
2024-04-21T17:55:05.006Z,94323.94
2024-04-21T17:57:34.257Z,94345.50
2024-04-21T18:00:01.904Z,94352.09
2024-04-21T18:02:34.320Z,94360.63
2024-04-21T18:05:02.484Z,94369.34
2024-04-21T18:07:32.584Z,94381.69
2024-04-21T18:10:03.632Z,94373.28
2024-04-21T18:12:32.600Z,94400.56
2024-04-21T18:15:00.063Z,94399.53
2024-04-21T18:17:28.389Z,94397.81
2024-04-21T18:19:56.002Z,94398.38
2024-04-21T18:22:23.851Z,94404.94
2024-04-21T18:24:51.348Z,94403.09
2024-04-21T18:27:19.228Z,94400.22
2024-04-21T18:29:46.775Z,94409.88
2024-04-21T18:32:14.197Z,94414.47
2024-04-21T18:34:41.702Z,94416.56
2024-04-21T18:37:09.206Z,94413.78
2024-04-21T18:39:36.768Z,94416.09
2024-04-21T18:42:04.401Z,94411.56
2024-04-21T18:44:32.729Z,94414.72
2024-04-21T18:47:00.764Z,94418.88
2024-04-21T18:49:28.310Z,94429.47
2024-04-21T18:51:55.722Z,94432.47
2024-04-21T18:54:23.024Z,94430.72
2024-04-21T18:56:50.289Z,94440.63
2024-04-21T18:59:17.522Z,94438.38
2024-04-21T19:01:45.070Z,94439.84
2024-04-21T19:04:12.455Z,94445.56
2024-04-21T19:06:39.729Z,94453.50
2024-04-21T19:09:07.569Z,94461.78
2024-04-21T19:11:37.292Z,94469.72
2024-04-21T19:14:05.110Z,94476.75
2024-04-21T19:16:32.652Z,94470.44
2024-04-21T19:19:00.441Z,94467.34
2024-04-21T19:21:28.112Z,94470.69
2024-04-21T19:23:56.307Z,94469.97
2024-04-21T19:26:23.726Z,94444.53
2024-04-21T19:28:52.605Z,94471.41
2024-04-21T19:31:20.188Z,94468.56
2024-04-21T19:33:48.654Z,94480.66
2024-04-21T19:36:16.322Z,94486.91
2024-04-21T19:38:43.721Z,94483.31
2024-04-21T19:41:11.018Z,94476.88
2024-04-21T19:43:38.585Z,94498.31
2024-04-21T19:46:06.474Z,94491.28
2024-04-21T19:48:33.987Z,94501.13
2024-04-21T19:51:01.919Z,94506.16
2024-04-21T19:53:29.754Z,94506.66
2024-04-21T19:55:57.425Z,94503.78
2024-04-21T19:58:25.134Z,94505.41
2024-04-21T20:01:01.185Z,94496.28
2024-04-21T20:03:29.527Z,94507.81
2024-04-21T20:05:56.922Z,94510.56
2024-04-21T20:08:24.559Z,94513.81
2024-04-21T20:10:52.092Z,94513.44
2024-04-21T20:13:21.999Z,94515.41
2024-04-21T20:16:15.320Z,94507.34
2024-04-21T20:18:45.026Z,94520.81
2024-04-21T20:21:12.688Z,94516.91
2024-04-21T20:23:40.005Z,94523.94
2024-04-21T20:26:22.280Z,94520.72
2024-04-21T20:28:49.609Z,94528.44
2024-04-21T20:31:21.777Z,94524.72
2024-04-21T20:33:49.694Z,94522.91
2024-04-21T20:36:21.169Z,94529.56
2024-04-21T20:38:49.784Z,94530.94
2024-04-21T20:41:22.218Z,94521.84
2024-04-21T20:43:50.556Z,94530.47
2024-04-21T20:46:21.878Z,94537.41
2024-04-21T20:48:50.112Z,94550.44
2024-04-21T20:51:18.156Z,94533.59
2024-04-21T20:53:45.532Z,94543.88
2024-04-21T20:56:13.378Z,94534.06
2024-04-21T20:58:49.902Z,94540.38
2024-04-21T21:01:20.648Z,94532.44
2024-04-21T21:03:50.163Z,94545.81
2024-04-21T21:06:20.286Z,94536.97
2024-04-21T21:08:51.646Z,94549.50
2024-04-21T21:11:19.478Z,94553.09
2024-04-21T21:13:47.020Z,94523.81
2024-04-21T21:16:14.315Z,94549.06
2024-04-21T21:18:45.048Z,94547.22
2024-04-21T21:21:12.531Z,94551.97
2024-04-21T21:23:39.789Z,94542.84
2024-04-21T21:26:07.031Z,94554.34
2024-04-21T21:28:34.561Z,94552.16
2024-04-21T21:31:04.268Z,94547.31
2024-04-21T21:33:31.792Z,94552.75
2024-04-21T21:36:00.642Z,94558.97
2024-04-21T21:38:30.092Z,94563.91
2024-04-21T21:40:57.777Z,94552.16
2024-04-21T21:43:25.704Z,94559.31
2024-04-21T21:45:53.491Z,94565.88
2024-04-21T21:48:20.815Z,94560.47
2024-04-21T21:50:48.280Z,94566.25
2024-04-21T21:53:15.552Z,94578.31
2024-04-21T21:55:42.942Z,94581.56
2024-04-21T21:58:10.506Z,94580.19
2024-04-21T22:00:38.384Z,94585.72
2024-04-21T22:03:06.107Z,94590.22
2024-04-21T22:05:34.328Z,94589.28
2024-04-21T22:08:01.543Z,94593.00
2024-04-21T22:10:29.324Z,94602.56
2024-04-21T22:12:56.750Z,94590.78
2024-04-21T22:15:24.074Z,94602.91
2024-04-21T22:17:51.628Z,94604.75
2024-04-21T22:20:20.349Z,94591.03
2024-04-21T22:22:49.717Z,94590.13
2024-04-21T22:25:19.564Z,94607.16
2024-04-21T22:27:46.950Z,94596.56
2024-04-21T22:30:14.231Z,94604.28
2024-04-21T22:32:42.693Z,94586.88
2024-04-21T22:35:10.178Z,94601.97
2024-04-21T22:37:37.804Z,94612.59
2024-04-21T22:40:05.973Z,94611.66
2024-04-21T22:42:33.558Z,94611.44
2024-04-21T22:45:00.729Z,94628.03
2024-04-21T22:47:30.263Z,94628.50
2024-04-21T22:49:58.235Z,94625.97
2024-04-21T22:52:26.075Z,94642.13
2024-04-21T22:54:53.482Z,94626.31
2024-04-21T22:57:21.151Z,94639.47
2024-04-21T22:59:48.916Z,94631.63
2024-04-21T23:02:16.421Z,94640.03
2024-04-21T23:04:43.819Z,94642.47
2024-04-21T23:07:11.309Z,94644.53
2024-04-21T23:09:38.564Z,94647.88
2024-04-21T23:12:08.228Z,94645.56
2024-04-21T23:14:36.341Z,94652.25
2024-04-21T23:17:03.738Z,94652.84
2024-04-21T23:19:31.117Z,94649.03
2024-04-21T23:21:58.409Z,94621.13
2024-04-21T23:24:25.861Z,94653.88
2024-04-21T23:26:53.318Z,94660.78
2024-04-21T23:29:20.785Z,94657.91
2024-04-21T23:31:48.055Z,94668.06
2024-04-21T23:34:15.684Z,94665.63
2024-04-21T23:36:42.959Z,94666.44
2024-04-21T23:39:10.510Z,94676.03
2024-04-21T23:41:38.120Z,94665.03
2024-04-21T23:44:05.909Z,94666.44
2024-04-21T23:46:33.326Z,94681.91
2024-04-21T23:49:00.599Z,94672.31
2024-04-21T23:51:28.066Z,94678.53
2024-04-21T23:53:55.278Z,94682.47
2024-04-21T23:56:22.681Z,94685.72
2024-04-21T23:58:49.961Z,94680.41
